createdAt,value
2023-01-30T00:00:10.051Z,-2.2
2023-01-30T00:12:09.831Z,-2.2
2023-01-30T00:24:09.734Z,-2.2
2023-01-30T00:36:09.762Z,-2.2
2023-01-30T00:48:09.761Z,-2.3
2023-01-30T01:00:09.725Z,-2.3
2023-01-30T01:12:09.772Z,-2.6
2023-01-30T01:24:09.778Z,-2.6
2023-01-30T01:36:09.774Z,-2.5
2023-01-30T01:48:09.789Z,-2.6
2023-01-30T02:00:09.786Z,-2.7
2023-01-30T02:12:09.780Z,-3.0
2023-01-30T02:24:09.798Z,-3.1
2023-01-30T02:36:09.823Z,-3.0
2023-01-30T02:48:09.852Z,-2.8
2023-01-30T03:00:09.818Z,-3.1
2023-01-30T03:12:09.797Z,-3.1
2023-01-30T03:24:09.817Z,-3.3
2023-01-30T03:36:10.088Z,-3.4
2023-01-30T03:48:09.796Z,-3.4
2023-01-30T04:00:09.856Z,-3.4
2023-01-30T04:12:09.831Z,-3.5
2023-01-30T04:24:09.865Z,-3.1
2023-01-30T04:36:09.886Z,-3.4
2023-01-30T04:48:09.872Z,-3.7
2023-01-30T05:00:09.900Z,-3.7
2023-01-30T05:12:09.938Z,-3.7
2023-01-30T05:24:09.959Z,-3.6
2023-01-30T05:36:09.914Z,-3.8
2023-01-30T05:48:09.923Z,-3.6
2023-01-30T06:00:09.923Z,-3.6
2023-01-30T06:12:09.990Z,-3.7
2023-01-30T06:24:09.962Z,-3.7
2023-01-30T06:37:09.975Z,-3.7
2023-01-30T06:50:09.966Z,-3.2
2023-01-30T07:04:09.989Z,-3.1
2023-01-30T07:17:09.948Z,-2.8
2023-01-30T07:30:09.962Z,-2.0
2023-01-30T07:43:09.983Z,-1.6
2023-01-30T07:56:09.957Z,-1.3
2023-01-30T08:09:10.150Z,-0.3
2023-01-30T08:22:09.978Z,0.5
2023-01-30T08:35:10.023Z,0.3
2023-01-30T08:48:09.974Z,0.4
2023-01-30T09:01:10.083Z,1.9
2023-01-30T09:14:10.074Z,3.8
2023-01-30T09:27:10.036Z,4.2
2023-01-30T09:40:10.041Z,4.7
2023-01-30T09:53:10.067Z,5.7
2023-01-30T10:06:10.091Z,5.5
2023-01-30T10:20:38.761Z,4.1
2023-01-30T10:33:37.947Z,3.8
2023-01-30T10:46:38.035Z,4.5
2023-01-30T10:59:38.010Z,5.6
2023-01-30T11:12:37.963Z,5.5
2023-01-30T11:25:38.017Z,5.8
2023-01-30T11:38:38.021Z,5.6
2023-01-30T11:51:37.974Z,5.6
2023-01-30T12:04:37.984Z,5.7
2023-01-30T12:17:37.999Z,6.2
2023-01-30T12:43:37.992Z,6.4
2023-01-30T12:56:38.018Z,7.0
2023-01-30T13:09:38.016Z,7.3
2023-01-30T13:22:38.030Z,7.7
2023-01-30T13:35:38.072Z,7.8
2023-01-30T13:48:38.054Z,8.2
2023-01-30T14:01:38.037Z,7.7
2023-01-30T14:14:38.076Z,8.2
2023-01-30T14:27:38.090Z,8.0
2023-01-30T14:40:38.090Z,7.6
2023-01-30T14:53:38.129Z,7.3
2023-01-30T15:06:38.129Z,7.2
2023-01-30T15:19:38.124Z,6.3
2023-01-30T15:32:38.116Z,5.2
2023-01-30T15:45:38.229Z,5.2
2023-01-30T15:58:38.150Z,3.9
2023-01-30T16:12:38.151Z,2.3
2023-01-30T16:25:38.205Z,1.6
2023-01-30T16:38:38.449Z,0.9
2023-01-30T16:51:38.236Z,0.6
2023-01-30T17:03:38.397Z,0.4
2023-01-30T17:15:38.381Z,0.2
2023-01-30T17:27:38.261Z,0.0
2023-01-30T17:39:38.258Z,-0.2
2023-01-30T17:51:38.437Z,-0.6
2023-01-30T18:03:38.385Z,-0.8
2023-01-30T18:15:38.340Z,-0.5
2023-01-30T18:27:38.344Z,-0.9
2023-01-30T18:39:38.369Z,-1.0
2023-01-30T18:51:38.387Z,-1.1
2023-01-30T19:03:38.407Z,-1.2
2023-01-30T19:15:38.415Z,-1.3
2023-01-30T19:27:38.381Z,-1.1
2023-01-30T19:39:38.435Z,-1.3
2023-01-30T19:51:38.508Z,-1.3
2023-01-30T20:03:38.590Z,-1.0
2023-01-30T20:15:38.534Z,-0.4
2023-01-30T20:27:38.557Z,-0.9
2023-01-30T20:39:38.750Z,-1.2
2023-01-30T20:51:38.553Z,-1.4
2023-01-30T21:03:38.580Z,-1.3
2023-01-30T21:15:38.583Z,-1.0
2023-01-30T21:27:40.227Z,-1.1
2023-01-30T21:39:39.081Z,-1.2
2023-01-30T21:51:38.967Z,-1.0
2023-01-30T22:03:38.994Z,-1.3
2023-01-30T22:15:38.903Z,-1.4
2023-01-30T22:27:38.963Z,-1.3
2023-01-30T22:39:38.877Z,-1.5
2023-01-30T22:51:39.453Z,-1.5
2023-01-30T23:03:39.345Z,-0.2
2023-01-30T23:15:39.068Z,-0.6
2023-01-30T23:27:39.078Z,-0.8
2023-01-30T23:39:39.025Z,-1.0
2023-01-30T23:51:39.084Z,-1.5
